sensor_id;sensor_type;location;lat;lon;timestamp;temperature;humidity
26909;DHT22;14477;51.038;4.588;2023-07-13T00:00:25;19.70;65.90
26909;DHT22;14477;51.038;4.588;2023-07-13T00:02:51;19.70;66.00
26909;DHT22;14477;51.038;4.588;2023-07-13T00:05:22;19.60;66.10
26909;DHT22;14477;51.038;4.588;2023-07-13T00:07:52;19.60;66.20
26909;DHT22;14477;51.038;4.588;2023-07-13T00:10:18;19.60;66.30
26909;DHT22;14477;51.038;4.588;2023-07-13T00:12:44;19.50;66.30
26909;DHT22;14477;51.038;4.588;2023-07-13T00:15:14;19.50;66.50
26909;DHT22;14477;51.038;4.588;2023-07-13T00:17:41;19.50;66.70
26909;DHT22;14477;51.038;4.588;2023-07-13T00:20:11;19.50;66.70
26909;DHT22;14477;51.038;4.588;2023-07-13T00:22:37;19.40;66.70
26909;DHT22;14477;51.038;4.588;2023-07-13T00:25:03;19.40;66.80
26909;DHT22;14477;51.038;4.588;2023-07-13T00:27:29;19.40;67.10
26909;DHT22;14477;51.038;4.588;2023-07-13T00:29:58;19.30;67.10
26909;DHT22;14477;51.038;4.588;2023-07-13T00:32:24;19.30;67.20
26909;DHT22;14477;51.038;4.588;2023-07-13T00:34:53;19.30;67.30
26909;DHT22;14477;51.038;4.588;2023-07-13T00:37:19;19.30;67.30
26909;DHT22;14477;51.038;4.588;2023-07-13T00:39:44;19.20;67.30
26909;DHT22;14477;51.038;4.588;2023-07-13T00:42:10;19.20;67.40
26909;DHT22;14477;51.038;4.588;2023-07-13T00:44:37;19.20;67.50
26909;DHT22;14477;51.038;4.588;2023-07-13T00:47:05;19.10;67.70
26909;DHT22;14477;51.038;4.588;2023-07-13T00:49:32;19.10;67.80
26909;DHT22;14477;51.038;4.588;2023-07-13T00:52:07;19.10;67.90
26909;DHT22;14477;51.038;4.588;2023-07-13T00:54:38;19.10;68.60
26909;DHT22;14477;51.038;4.588;2023-07-13T00:57:07;19.10;68.40
26909;DHT22;14477;51.038;4.588;2023-07-13T00:59:35;19.00;68.00
26909;DHT22;14477;51.038;4.588;2023-07-13T01:02:02;19.00;68.40
26909;DHT22;14477;51.038;4.588;2023-07-13T01:04:29;19.00;68.60
26909;DHT22;14477;51.038;4.588;2023-07-13T01:06:55;19.00;68.60
26909;DHT22;14477;51.038;4.588;2023-07-13T01:09:22;18.90;68.70
26909;DHT22;14477;51.038;4.588;2023-07-13T01:11:48;18.90;68.80
26909;DHT22;14477;51.038;4.588;2023-07-13T01:14:15;18.90;68.90
26909;DHT22;14477;51.038;4.588;2023-07-13T01:16:43;18.80;68.90
26909;DHT22;14477;51.038;4.588;2023-07-13T01:22:05;18.80;70.00
26909;DHT22;14477;51.038;4.588;2023-07-13T01:24:36;18.80;69.20
26909;DHT22;14477;51.038;4.588;2023-07-13T01:27:03;18.80;69.30
26909;DHT22;14477;51.038;4.588;2023-07-13T01:29:30;18.70;69.50
26909;DHT22;14477;51.038;4.588;2023-07-13T01:31:56;18.70;69.70
26909;DHT22;14477;51.038;4.588;2023-07-13T01:34:22;18.70;69.90
26909;DHT22;14477;51.038;4.588;2023-07-13T01:36:48;18.70;70.00
26909;DHT22;14477;51.038;4.588;2023-07-13T01:39:14;18.70;70.00
26909;DHT22;14477;51.038;4.588;2023-07-13T01:41:41;18.70;70.20
26909;DHT22;14477;51.038;4.588;2023-07-13T01:44:06;18.70;70.20
26909;DHT22;14477;51.038;4.588;2023-07-13T01:46:32;18.70;70.30
26909;DHT22;14477;51.038;4.588;2023-07-13T01:48:58;18.70;70.40
26909;DHT22;14477;51.038;4.588;2023-07-13T01:51:24;18.70;70.40
26909;DHT22;14477;51.038;4.588;2023-07-13T01:53:50;18.70;70.40
26909;DHT22;14477;51.038;4.588;2023-07-13T01:56:15;18.70;70.40
26909;DHT22;14477;51.038;4.588;2023-07-13T01:58:41;18.70;70.40
26909;DHT22;14477;51.038;4.588;2023-07-13T02:01:07;18.70;70.60
26909;DHT22;14477;51.038;4.588;2023-07-13T02:03:32;18.70;70.70
26909;DHT22;14477;51.038;4.588;2023-07-13T02:05:58;18.60;70.90
26909;DHT22;14477;51.038;4.588;2023-07-13T02:08:24;18.60;71.00
26909;DHT22;14477;51.038;4.588;2023-07-13T02:10:49;18.60;71.20
26909;DHT22;14477;51.038;4.588;2023-07-13T02:13:15;18.70;71.40
26909;DHT22;14477;51.038;4.588;2023-07-13T02:15:41;18.70;71.50
26909;DHT22;14477;51.038;4.588;2023-07-13T02:18:06;18.70;71.50
26909;DHT22;14477;51.038;4.588;2023-07-13T02:20:32;18.70;71.80
26909;DHT22;14477;51.038;4.588;2023-07-13T02:22:58;18.70;72.00
26909;DHT22;14477;51.038;4.588;2023-07-13T02:25:23;18.70;72.00
26909;DHT22;14477;51.038;4.588;2023-07-13T02:27:50;18.70;72.20
26909;DHT22;14477;51.038;4.588;2023-07-13T02:30:16;18.80;72.30
26909;DHT22;14477;51.038;4.588;2023-07-13T02:32:42;18.80;72.40
26909;DHT22;14477;51.038;4.588;2023-07-13T02:35:09;18.80;72.30
26909;DHT22;14477;51.038;4.588;2023-07-13T02:37:35;18.90;72.50
26909;DHT22;14477;51.038;4.588;2023-07-13T02:40:00;18.90;72.50
26909;DHT22;14477;51.038;4.588;2023-07-13T02:42:26;18.90;72.50
26909;DHT22;14477;51.038;4.588;2023-07-13T02:44:52;18.90;72.60
26909;DHT22;14477;51.038;4.588;2023-07-13T02:47:18;18.90;72.60
26909;DHT22;14477;51.038;4.588;2023-07-13T02:49:43;19.00;72.80
26909;DHT22;14477;51.038;4.588;2023-07-13T02:52:09;19.00;72.80
26909;DHT22;14477;51.038;4.588;2023-07-13T02:54:35;19.00;72.80
26909;DHT22;14477;51.038;4.588;2023-07-13T02:57:01;19.00;72.80
26909;DHT22;14477;51.038;4.588;2023-07-13T02:59:26;19.00;73.00
26909;DHT22;14477;51.038;4.588;2023-07-13T03:01:52;18.90;73.00
26909;DHT22;14477;51.038;4.588;2023-07-13T03:04:19;18.90;73.00
26909;DHT22;14477;51.038;4.588;2023-07-13T03:06:46;19.00;73.30
26909;DHT22;14477;51.038;4.588;2023-07-13T03:09:12;19.00;73.20
26909;DHT22;14477;51.038;4.588;2023-07-13T03:11:38;19.00;73.30
26909;DHT22;14477;51.038;4.588;2023-07-13T03:14:04;19.00;73.30
26909;DHT22;14477;51.038;4.588;2023-07-13T03:16:29;19.00;73.50
26909;DHT22;14477;51.038;4.588;2023-07-13T03:18:55;19.00;73.40
26909;DHT22;14477;51.038;4.588;2023-07-13T03:21:21;19.00;73.50
26909;DHT22;14477;51.038;4.588;2023-07-13T03:23:47;19.00;73.60
26909;DHT22;14477;51.038;4.588;2023-07-13T03:26:18;19.00;73.60
26909;DHT22;14477;51.038;4.588;2023-07-13T03:28:45;19.00;73.90
26909;DHT22;14477;51.038;4.588;2023-07-13T03:31:17;19.00;73.70
26909;DHT22;14477;51.038;4.588;2023-07-13T03:33:43;19.00;74.00
26909;DHT22;14477;51.038;4.588;2023-07-13T03:36:15;19.00;73.80
26909;DHT22;14477;51.038;4.588;2023-07-13T03:38:48;19.00;74.10
26909;DHT22;14477;51.038;4.588;2023-07-13T03:41:14;19.00;74.00
26909;DHT22;14477;51.038;4.588;2023-07-13T03:43:41;19.00;74.00
26909;DHT22;14477;51.038;4.588;2023-07-13T03:46:06;19.00;74.10
26909;DHT22;14477;51.038;4.588;2023-07-13T03:48:32;19.00;74.10
26909;DHT22;14477;51.038;4.588;2023-07-13T03:50:58;19.00;74.40
26909;DHT22;14477;51.038;4.588;2023-07-13T03:53:24;19.00;74.50
26909;DHT22;14477;51.038;4.588;2023-07-13T03:55:49;19.00;74.40
26909;DHT22;14477;51.038;4.588;2023-07-13T04:00:56;19.00;75.00
26909;DHT22;14477;51.038;4.588;2023-07-13T04:03:23;19.00;74.60
26909;DHT22;14477;51.038;4.588;2023-07-13T04:05:48;19.00;74.60
26909;DHT22;14477;51.038;4.588;2023-07-13T04:08:14;19.00;74.80
26909;DHT22;14477;51.038;4.588;2023-07-13T04:10:40;19.10;74.80
26909;DHT22;14477;51.038;4.588;2023-07-13T04:13:06;19.10;74.90
26909;DHT22;14477;51.038;4.588;2023-07-13T04:15:33;19.10;75.00
26909;DHT22;14477;51.038;4.588;2023-07-13T04:17:59;19.10;75.00
26909;DHT22;14477;51.038;4.588;2023-07-13T04:20:25;19.10;75.10
26909;DHT22;14477;51.038;4.588;2023-07-13T04:22:52;19.10;75.20
26909;DHT22;14477;51.038;4.588;2023-07-13T04:25:19;19.10;75.10
26909;DHT22;14477;51.038;4.588;2023-07-13T04:27:45;19.10;75.20
26909;DHT22;14477;51.038;4.588;2023-07-13T04:30:10;19.10;75.20
26909;DHT22;14477;51.038;4.588;2023-07-13T04:32:36;19.10;75.30
26909;DHT22;14477;51.038;4.588;2023-07-13T04:35:02;19.10;75.30
26909;DHT22;14477;51.038;4.588;2023-07-13T04:37:27;19.10;75.40
26909;DHT22;14477;51.038;4.588;2023-07-13T04:39:54;19.10;75.40
26909;DHT22;14477;51.038;4.588;2023-07-13T04:42:20;19.10;75.40
26909;DHT22;14477;51.038;4.588;2023-07-13T04:44:50;19.10;75.40
26909;DHT22;14477;51.038;4.588;2023-07-13T04:47:16;19.10;75.70
26909;DHT22;14477;51.038;4.588;2023-07-13T04:49:42;19.10;75.70
26909;DHT22;14477;51.038;4.588;2023-07-13T04:52:08;19.10;75.70
26909;DHT22;14477;51.038;4.588;2023-07-13T04:54:34;19.20;75.70
26909;DHT22;14477;51.038;4.588;2023-07-13T04:57:00;19.20;75.70
26909;DHT22;14477;51.038;4.588;2023-07-13T04:59:27;19.10;75.80
26909;DHT22;14477;51.038;4.588;2023-07-13T05:01:53;19.10;75.90
26909;DHT22;14477;51.038;4.588;2023-07-13T05:04:18;19.10;76.00
26909;DHT22;14477;51.038;4.588;2023-07-13T05:06:44;19.10;76.10
26909;DHT22;14477;51.038;4.588;2023-07-13T05:09:10;19.10;76.10
26909;DHT22;14477;51.038;4.588;2023-07-13T05:11:38;19.10;76.10
26909;DHT22;14477;51.038;4.588;2023-07-13T05:14:04;19.10;76.40
26909;DHT22;14477;51.038;4.588;2023-07-13T05:16:29;19.20;76.50
26909;DHT22;14477;51.038;4.588;2023-07-13T05:18:55;19.20;76.50
26909;DHT22;14477;51.038;4.588;2023-07-13T05:21:21;19.20;76.50
26909;DHT22;14477;51.038;4.588;2023-07-13T05:23:47;19.20;76.60
26909;DHT22;14477;51.038;4.588;2023-07-13T05:26:12;19.20;76.60
26909;DHT22;14477;51.038;4.588;2023-07-13T05:28:38;19.30;76.80
26909;DHT22;14477;51.038;4.588;2023-07-13T05:31:06;19.30;76.70
26909;DHT22;14477;51.038;4.588;2023-07-13T05:33:33;19.20;76.80
26909;DHT22;14477;51.038;4.588;2023-07-13T05:35:59;19.20;76.90
26909;DHT22;14477;51.038;4.588;2023-07-13T05:38:26;19.30;76.90
26909;DHT22;14477;51.038;4.588;2023-07-13T05:40:54;19.30;77.00
26909;DHT22;14477;51.038;4.588;2023-07-13T05:43:20;19.30;77.10
26909;DHT22;14477;51.038;4.588;2023-07-13T05:45:46;19.40;77.20
26909;DHT22;14477;51.038;4.588;2023-07-13T05:48:12;19.40;77.20
26909;DHT22;14477;51.038;4.588;2023-07-13T05:50:38;19.40;77.20
26909;DHT22;14477;51.038;4.588;2023-07-13T05:53:04;19.40;77.30
26909;DHT22;14477;51.038;4.588;2023-07-13T05:55:30;19.40;77.30
26909;DHT22;14477;51.038;4.588;2023-07-13T05:57:56;19.50;77.40
26909;DHT22;14477;51.038;4.588;2023-07-13T06:00:23;19.50;77.50
26909;DHT22;14477;51.038;4.588;2023-07-13T06:02:50;19.50;77.50
26909;DHT22;14477;51.038;4.588;2023-07-13T06:05:15;19.60;77.60
26909;DHT22;14477;51.038;4.588;2023-07-13T06:07:42;19.60;78.10
26909;DHT22;14477;51.038;4.588;2023-07-13T06:10:08;19.60;77.70
26909;DHT22;14477;51.038;4.588;2023-07-13T06:12:34;19.70;77.80
26909;DHT22;14477;51.038;4.588;2023-07-13T06:15:00;19.70;77.90
26909;DHT22;14477;51.038;4.588;2023-07-13T06:17:25;19.80;78.00
26909;DHT22;14477;51.038;4.588;2023-07-13T06:19:51;19.80;78.00
26909;DHT22;14477;51.038;4.588;2023-07-13T06:22:17;19.80;78.00
26909;DHT22;14477;51.038;4.588;2023-07-13T06:24:43;19.90;78.00
26909;DHT22;14477;51.038;4.588;2023-07-13T06:27:08;19.90;77.90
26909;DHT22;14477;51.038;4.588;2023-07-13T06:29:34;19.90;78.00
26909;DHT22;14477;51.038;4.588;2023-07-13T06:32:00;20.00;78.10
26909;DHT22;14477;51.038;4.588;2023-07-13T06:34:26;20.00;78.10
26909;DHT22;14477;51.038;4.588;2023-07-13T06:36:52;20.10;78.10
26909;DHT22;14477;51.038;4.588;2023-07-13T06:39:18;20.10;78.10
26909;DHT22;14477;51.038;4.588;2023-07-13T06:41:44;20.20;78.10
26909;DHT22;14477;51.038;4.588;2023-07-13T06:44:09;20.20;78.20
26909;DHT22;14477;51.038;4.588;2023-07-13T06:46:35;20.30;78.40
26909;DHT22;14477;51.038;4.588;2023-07-13T06:49:01;20.40;78.40
26909;DHT22;14477;51.038;4.588;2023-07-13T06:51:27;20.40;78.10
26909;DHT22;14477;51.038;4.588;2023-07-13T06:53:52;20.40;78.10
26909;DHT22;14477;51.038;4.588;2023-07-13T06:56:18;20.50;78.10
26909;DHT22;14477;51.038;4.588;2023-07-13T06:58:44;20.50;78.10
26909;DHT22;14477;51.038;4.588;2023-07-13T07:01:10;20.50;78.10
26909;DHT22;14477;51.038;4.588;2023-07-13T07:03:36;20.60;78.10
26909;DHT22;14477;51.038;4.588;2023-07-13T07:06:17;20.60;78.10
26909;DHT22;14477;51.038;4.588;2023-07-13T07:08:43;20.70;78.10
26909;DHT22;14477;51.038;4.588;2023-07-13T07:11:24;20.70;78.10
26909;DHT22;14477;51.038;4.588;2023-07-13T07:13:54;20.80;78.20
26909;DHT22;14477;51.038;4.588;2023-07-13T07:16:20;20.80;78.50
26909;DHT22;14477;51.038;4.588;2023-07-13T07:18:46;20.90;78.50
26909;DHT22;14477;51.038;4.588;2023-07-13T07:21:12;21.00;78.30
26909;DHT22;14477;51.038;4.588;2023-07-13T07:23:38;21.10;78.20
26909;DHT22;14477;51.038;4.588;2023-07-13T07:26:04;21.10;78.20
26909;DHT22;14477;51.038;4.588;2023-07-13T07:28:30;21.20;78.40
26909;DHT22;14477;51.038;4.588;2023-07-13T07:30:57;21.30;78.50
26909;DHT22;14477;51.038;4.588;2023-07-13T07:33:24;21.40;78.40
26909;DHT22;14477;51.038;4.588;2023-07-13T07:35:50;21.40;78.40
26909;DHT22;14477;51.038;4.588;2023-07-13T07:38:16;21.50;78.60
26909;DHT22;14477;51.038;4.588;2023-07-13T07:40:42;21.60;78.60
26909;DHT22;14477;51.038;4.588;2023-07-13T07:43:09;21.70;78.80
26909;DHT22;14477;51.038;4.588;2023-07-13T07:45:35;21.80;78.70
26909;DHT22;14477;51.038;4.588;2023-07-13T07:48:03;22.00;78.70
26909;DHT22;14477;51.038;4.588;2023-07-13T07:50:29;22.10;78.50
26909;DHT22;14477;51.038;4.588;2023-07-13T07:52:55;22.20;78.30
26909;DHT22;14477;51.038;4.588;2023-07-13T07:55:24;22.30;78.00
26909;DHT22;14477;51.038;4.588;2023-07-13T07:57:56;22.40;78.10
26909;DHT22;14477;51.038;4.588;2023-07-13T08:00:22;22.50;78.10
26909;DHT22;14477;51.038;4.588;2023-07-13T08:02:48;22.60;78.50
26909;DHT22;14477;51.038;4.588;2023-07-13T08:05:13;22.80;78.60
26909;DHT22;14477;51.038;4.588;2023-07-13T08:07:39;23.00;78.50
26909;DHT22;14477;51.038;4.588;2023-07-13T08:10:06;23.20;77.70
26909;DHT22;14477;51.038;4.588;2023-07-13T08:12:37;23.30;77.70
26909;DHT22;14477;51.038;4.588;2023-07-13T08:15:04;23.50;78.10
26909;DHT22;14477;51.038;4.588;2023-07-13T08:17:30;23.70;79.60
26909;DHT22;14477;51.038;4.588;2023-07-13T08:19:56;24.00;79.40
26909;DHT22;14477;51.038;4.588;2023-07-13T08:22:22;24.40;79.50
26909;DHT22;14477;51.038;4.588;2023-07-13T08:24:48;24.70;78.90
26909;DHT22;14477;51.038;4.588;2023-07-13T08:27:21;25.00;77.30
26909;DHT22;14477;51.038;4.588;2023-07-13T08:29:48;25.20;76.30
26909;DHT22;14477;51.038;4.588;2023-07-13T08:32:14;25.30;75.00
26909;DHT22;14477;51.038;4.588;2023-07-13T08:34:39;25.30;75.20
26909;DHT22;14477;51.038;4.588;2023-07-13T08:37:06;25.50;76.10
26909;DHT22;14477;51.038;4.588;2023-07-13T08:39:33;25.60;75.50
26909;DHT22;14477;51.038;4.588;2023-07-13T08:42:33;25.80;74.60
26909;DHT22;14477;51.038;4.588;2023-07-13T08:45:22;25.90;72.10
26909;DHT22;14477;51.038;4.588;2023-07-13T08:47:52;26.20;73.40
26909;DHT22;14477;51.038;4.588;2023-07-13T08:50:21;26.40;76.30
26909;DHT22;14477;51.038;4.588;2023-07-13T08:52:49;26.70;75.70
26909;DHT22;14477;51.038;4.588;2023-07-13T08:55:20;26.90;74.50
26909;DHT22;14477;51.038;4.588;2023-07-13T08:57:50;27.10;73.10
26909;DHT22;14477;51.038;4.588;2023-07-13T09:00:18;27.20;72.60
26909;DHT22;14477;51.038;4.588;2023-07-13T09:02:57;27.30;72.00
26909;DHT22;14477;51.038;4.588;2023-07-13T09:05:28;27.20;68.60
26909;DHT22;14477;51.038;4.588;2023-07-13T09:10:53;26.90;67.70
26909;DHT22;14477;51.038;4.588;2023-07-13T09:13:45;26.80;67.20
26909;DHT22;14477;51.038;4.588;2023-07-13T09:16:14;26.70;67.10
26909;DHT22;14477;51.038;4.588;2023-07-13T09:18:49;26.60;69.20
26909;DHT22;14477;51.038;4.588;2023-07-13T09:21:23;26.50;69.20
26909;DHT22;14477;51.038;4.588;2023-07-13T09:23:56;26.70;70.20
26909;DHT22;14477;51.038;4.588;2023-07-13T09:26:28;26.90;71.60
26909;DHT22;14477;51.038;4.588;2023-07-13T09:29:06;27.10;69.50
26909;DHT22;14477;51.038;4.588;2023-07-13T09:31:43;27.20;67.90
26909;DHT22;14477;51.038;4.588;2023-07-13T09:34:12;27.20;67.50
26909;DHT22;14477;51.038;4.588;2023-07-13T09:36:38;27.20;68.90
26909;DHT22;14477;51.038;4.588;2023-07-13T09:42:04;27.50;68.60
26909;DHT22;14477;51.038;4.588;2023-07-13T09:44:55;27.70;65.70
26909;DHT22;14477;51.038;4.588;2023-07-13T09:47:28;28.00;66.40
26909;DHT22;14477;51.038;4.588;2023-07-13T09:52:24;28.50;69.30
26909;DHT22;14477;51.038;4.588;2023-07-13T09:54:52;28.80;68.90
26909;DHT22;14477;51.038;4.588;2023-07-13T09:57:27;29.10;68.80
26909;DHT22;14477;51.038;4.588;2023-07-13T09:59:55;29.40;69.10
26909;DHT22;14477;51.038;4.588;2023-07-13T10:02:32;29.70;68.10
26909;DHT22;14477;51.038;4.588;2023-07-13T10:05:11;29.80;64.50
26909;DHT22;14477;51.038;4.588;2023-07-13T10:07:41;29.80;63.80
26909;DHT22;14477;51.038;4.588;2023-07-13T10:10:21;29.70;62.50
26909;DHT22;14477;51.038;4.588;2023-07-13T10:12:49;29.70;61.70
26909;DHT22;14477;51.038;4.588;2023-07-13T10:15:21;29.70;63.50
26909;DHT22;14477;51.038;4.588;2023-07-13T10:17:48;29.70;62.70
26909;DHT22;14477;51.038;4.588;2023-07-13T10:20:14;29.80;63.50
26909;DHT22;14477;51.038;4.588;2023-07-13T10:25:26;29.90;60.10
26909;DHT22;14477;51.038;4.588;2023-07-13T10:30:41;30.00;62.40
26909;DHT22;14477;51.038;4.588;2023-07-13T10:33:13;30.20;62.90
26909;DHT22;14477;51.038;4.588;2023-07-13T10:35:42;30.20;60.60
26909;DHT22;14477;51.038;4.588;2023-07-13T10:38:14;30.20;59.90
26909;DHT22;14477;51.038;4.588;2023-07-13T10:41:00;30.20;59.70
26909;DHT22;14477;51.038;4.588;2023-07-13T10:43:35;30.20;59.70
26909;DHT22;14477;51.038;4.588;2023-07-13T10:46:07;30.30;60.50
26909;DHT22;14477;51.038;4.588;2023-07-13T10:48:35;30.40;60.30
26909;DHT22;14477;51.038;4.588;2023-07-13T10:51:04;30.60;60.80
26909;DHT22;14477;51.038;4.588;2023-07-13T10:53:37;30.70;60.00
26909;DHT22;14477;51.038;4.588;2023-07-13T10:56:50;30.90;60.40
26909;DHT22;14477;51.038;4.588;2023-07-13T11:01:40;31.10;57.50
26909;DHT22;14477;51.038;4.588;2023-07-13T11:04:12;31.30;56.70
26909;DHT22;14477;51.038;4.588;2023-07-13T11:06:40;31.40;57.70
26909;DHT22;14477;51.038;4.588;2023-07-13T11:09:36;31.60;59.00
26909;DHT22;14477;51.038;4.588;2023-07-13T11:12:26;31.70;57.20
26909;DHT22;14477;51.038;4.588;2023-07-13T11:22:51;31.50;55.00
26909;DHT22;14477;51.038;4.588;2023-07-13T11:25:21;31.50;54.70
26909;DHT22;14477;51.038;4.588;2023-07-13T11:31:01;31.20;53.10
26909;DHT22;14477;51.038;4.588;2023-07-13T11:36:17;30.70;51.90
26909;DHT22;14477;51.038;4.588;2023-07-13T11:39:00;30.30;53.10
26909;DHT22;14477;51.038;4.588;2023-07-13T11:41:35;29.90;52.00
26909;DHT22;14477;51.038;4.588;2023-07-13T11:44:23;29.60;52.70
26909;DHT22;14477;51.038;4.588;2023-07-13T11:46:53;29.20;52.40
26909;DHT22;14477;51.038;4.588;2023-07-13T11:49:25;29.00;53.90
26909;DHT22;14477;51.038;4.588;2023-07-13T11:51:53;28.80;54.10
26909;DHT22;14477;51.038;4.588;2023-07-13T11:54:30;28.60;54.80
26909;DHT22;14477;51.038;4.588;2023-07-13T11:57:00;28.50;54.70
26909;DHT22;14477;51.038;4.588;2023-07-13T11:59:28;28.50;55.50
26909;DHT22;14477;51.038;4.588;2023-07-13T12:01:55;28.40;55.70
26909;DHT22;14477;51.038;4.588;2023-07-13T12:04:31;28.40;55.80
26909;DHT22;14477;51.038;4.588;2023-07-13T12:07:07;28.40;55.10
26909;DHT22;14477;51.038;4.588;2023-07-13T12:09:34;28.30;55.10
26909;DHT22;14477;51.038;4.588;2023-07-13T12:12:02;28.20;55.40
26909;DHT22;14477;51.038;4.588;2023-07-13T12:14:28;28.10;55.30
26909;DHT22;14477;51.038;4.588;2023-07-13T12:16:54;27.90;55.00
26909;DHT22;14477;51.038;4.588;2023-07-13T12:19:28;27.60;55.70
26909;DHT22;14477;51.038;4.588;2023-07-13T12:21:58;27.20;55.90
26909;DHT22;14477;51.038;4.588;2023-07-13T12:24:25;26.80;55.50
26909;DHT22;14477;51.038;4.588;2023-07-13T12:27:01;26.30;55.80
26909;DHT22;14477;51.038;4.588;2023-07-13T12:29:28;25.70;56.60
26909;DHT22;14477;51.038;4.588;2023-07-13T12:31:53;25.30;57.00
26909;DHT22;14477;51.038;4.588;2023-07-13T12:34:23;24.90;57.60
26909;DHT22;14477;51.038;4.588;2023-07-13T12:36:54;24.40;58.50
26909;DHT22;14477;51.038;4.588;2023-07-13T12:39:45;24.00;59.50
26909;DHT22;14477;51.038;4.588;2023-07-13T12:42:31;23.60;61.80
26909;DHT22;14477;51.038;4.588;2023-07-13T12:47:23;23.00;61.40
26909;DHT22;14477;51.038;4.588;2023-07-13T12:49:57;22.80;62.20
26909;DHT22;14477;51.038;4.588;2023-07-13T12:52:29;22.70;63.60
26909;DHT22;14477;51.038;4.588;2023-07-13T12:55:12;22.60;64.10
26909;DHT22;14477;51.038;4.588;2023-07-13T13:00:30;22.60;64.70
26909;DHT22;14477;51.038;4.588;2023-07-13T13:03:06;22.70;66.20
26909;DHT22;14477;51.038;4.588;2023-07-13T13:05:33;22.80;66.30
26909;DHT22;14477;51.038;4.588;2023-07-13T13:07:59;22.80;66.20
26909;DHT22;14477;51.038;4.588;2023-07-13T13:10:25;23.00;66.10
26909;DHT22;14477;51.038;4.588;2023-07-13T13:12:52;23.10;66.40
26909;DHT22;14477;51.038;4.588;2023-07-13T13:15:18;23.20;66.30
26909;DHT22;14477;51.038;4.588;2023-07-13T13:17:44;23.40;66.40
26909;DHT22;14477;51.038;4.588;2023-07-13T13:20:19;23.50;66.20
26909;DHT22;14477;51.038;4.588;2023-07-13T13:22:45;23.60;66.50
26909;DHT22;14477;51.038;4.588;2023-07-13T13:25:12;23.70;65.70
26909;DHT22;14477;51.038;4.588;2023-07-13T13:27:39;23.70;65.70
26909;DHT22;14477;51.038;4.588;2023-07-13T13:30:18;23.80;65.90
26909;DHT22;14477;51.038;4.588;2023-07-13T13:32:47;23.80;66.70
26909;DHT22;14477;51.038;4.588;2023-07-13T13:35:14;23.90;66.50
26909;DHT22;14477;51.038;4.588;2023-07-13T13:37:41;23.90;66.70
26909;DHT22;14477;51.038;4.588;2023-07-13T13:40:14;24.00;66.50
26909;DHT22;14477;51.038;4.588;2023-07-13T13:42:41;24.10;67.00
26909;DHT22;14477;51.038;4.588;2023-07-13T13:45:09;24.10;66.70
26909;DHT22;14477;51.038;4.588;2023-07-13T13:47:35;24.30;67.00
26909;DHT22;14477;51.038;4.588;2023-07-13T13:50:09;24.30;67.00
26909;DHT22;14477;51.038;4.588;2023-07-13T13:52:36;24.40;67.30
26909;DHT22;14477;51.038;4.588;2023-07-13T13:55:04;24.50;67.20
26909;DHT22;14477;51.038;4.588;2023-07-13T13:57:31;24.60;67.10
26909;DHT22;14477;51.038;4.588;2023-07-13T13:59:57;24.60;66.90
26909;DHT22;14477;51.038;4.588;2023-07-13T14:02:27;24.70;66.90
26909;DHT22;14477;51.038;4.588;2023-07-13T14:04:59;24.70;67.30
26909;DHT22;14477;51.038;4.588;2023-07-13T14:07:26;24.80;67.90
26909;DHT22;14477;51.038;4.588;2023-07-13T14:09:54;24.90;67.90
26909;DHT22;14477;51.038;4.588;2023-07-13T14:12:21;25.00;68.10
26909;DHT22;14477;51.038;4.588;2023-07-13T14:14:46;25.10;68.20
26909;DHT22;14477;51.038;4.588;2023-07-13T14:17:23;25.30;67.90
26909;DHT22;14477;51.038;4.588;2023-07-13T14:19:50;25.40;67.70
26909;DHT22;14477;51.038;4.588;2023-07-13T14:22:20;25.50;68.00
26909;DHT22;14477;51.038;4.588;2023-07-13T14:24:46;25.70;67.80
26909;DHT22;14477;51.038;4.588;2023-07-13T14:27:12;25.80;67.50
26909;DHT22;14477;51.038;4.588;2023-07-13T14:29:38;25.90;67.10
26909;DHT22;14477;51.038;4.588;2023-07-13T14:32:08;26.00;67.20
26909;DHT22;14477;51.038;4.588;2023-07-13T14:34:35;26.10;67.20
26909;DHT22;14477;51.038;4.588;2023-07-13T14:37:00;26.20;67.00
26909;DHT22;14477;51.038;4.588;2023-07-13T14:39:26;26.20;67.30
26909;DHT22;14477;51.038;4.588;2023-07-13T14:41:54;26.30;67.00
26909;DHT22;14477;51.038;4.588;2023-07-13T14:44:28;26.30;66.90
26909;DHT22;14477;51.038;4.588;2023-07-13T14:46:55;26.40;66.90
26909;DHT22;14477;51.038;4.588;2023-07-13T14:49:27;26.50;67.00
26909;DHT22;14477;51.038;4.588;2023-07-13T14:51:56;26.50;66.50
26909;DHT22;14477;51.038;4.588;2023-07-13T14:54:23;26.60;65.90
26909;DHT22;14477;51.038;4.588;2023-07-13T14:56:49;26.60;65.70
26909;DHT22;14477;51.038;4.588;2023-07-13T14:59:15;26.70;65.90
26909;DHT22;14477;51.038;4.588;2023-07-13T15:01:41;26.70;66.20
26909;DHT22;14477;51.038;4.588;2023-07-13T15:04:07;26.70;66.10
26909;DHT22;14477;51.038;4.588;2023-07-13T15:06:56;26.80;66.10
26909;DHT22;14477;51.038;4.588;2023-07-13T15:09:23;26.80;65.30
26909;DHT22;14477;51.038;4.588;2023-07-13T15:11:53;26.90;65.60
26909;DHT22;14477;51.038;4.588;2023-07-13T15:14:19;26.90;65.30
26909;DHT22;14477;51.038;4.588;2023-07-13T15:16:47;27.00;65.30
26909;DHT22;14477;51.038;4.588;2023-07-13T15:19:15;27.00;65.00
26909;DHT22;14477;51.038;4.588;2023-07-13T15:21:42;27.00;64.50
26909;DHT22;14477;51.038;4.588;2023-07-13T15:24:09;27.10;64.30
26909;DHT22;14477;51.038;4.588;2023-07-13T15:26:35;27.10;63.90
26909;DHT22;14477;51.038;4.588;2023-07-13T15:29:02;27.10;64.40
26909;DHT22;14477;51.038;4.588;2023-07-13T15:31:28;27.10;64.20
26909;DHT22;14477;51.038;4.588;2023-07-13T15:33:55;27.20;64.30
26909;DHT22;14477;51.038;4.588;2023-07-13T15:36:23;27.20;64.30
26909;DHT22;14477;51.038;4.588;2023-07-13T15:38:52;27.30;64.10
26909;DHT22;14477;51.038;4.588;2023-07-13T15:41:24;27.40;64.10
26909;DHT22;14477;51.038;4.588;2023-07-13T15:43:56;27.50;63.40
26909;DHT22;14477;51.038;4.588;2023-07-13T15:46:27;27.60;63.70
26909;DHT22;14477;51.038;4.588;2023-07-13T15:48:54;27.60;63.50
26909;DHT22;14477;51.038;4.588;2023-07-13T15:51:30;27.70;63.30
26909;DHT22;14477;51.038;4.588;2023-07-13T15:54:01;27.70;62.20
26909;DHT22;14477;51.038;4.588;2023-07-13T15:56:34;27.70;62.50
26909;DHT22;14477;51.038;4.588;2023-07-13T15:59:01;27.80;62.20
26909;DHT22;14477;51.038;4.588;2023-07-13T16:01:27;27.80;62.30
26909;DHT22;14477;51.038;4.588;2023-07-13T16:03:52;27.80;61.90
26909;DHT22;14477;51.038;4.588;2023-07-13T16:06:31;27.70;61.80
26909;DHT22;14477;51.038;4.588;2023-07-13T16:09:00;27.70;60.40
26909;DHT22;14477;51.038;4.588;2023-07-13T16:11:30;27.70;61.80
26909;DHT22;14477;51.038;4.588;2023-07-13T16:13:58;27.70;61.90
26909;DHT22;14477;51.038;4.588;2023-07-13T16:16:32;27.70;62.20
26909;DHT22;14477;51.038;4.588;2023-07-13T16:19:00;27.70;61.00